Time;durP1;ratioP1;P1;durP2;ratioP2;P2;SDS_P1;SDS_P2;PMS_P1;PMS_P2;Temp;Humidity;BMP_temperature;BMP_pressure;BME280_temperature;BME280_humidity;BME280_pressure;Samples;Min_cycle;Max_cycle;Signal;HPM_P1;HPM_P2
2022/01/30 00:00:10;;;;;;;;;;;7.90;72.20;;;;;;5037487;28;20279;-85
2022/01/30 00:02:36;;;;;;;;;;;7.90;72.20;;;;;;5032846;28;19989;-82
2022/01/30 00:05:02;;;;;;;;;;;7.80;72.20;;;;;;5037817;28;19924;-82
2022/01/30 00:07:27;;;;;;;;;;;7.80;72.70;;;;;;5037390;28;19935;-83
2022/01/30 00:09:53;;;;;;;;;;;7.70;72.70;;;;;;5038885;28;19944;-82
2022/01/30 00:12:26;;;;;;;;;;;7.80;73.20;;;;;;5035314;28;19913;-82
2022/01/30 00:14:54;;;;;;;;;;;7.80;73.20;;;;;;5037280;28;19923;-82
2022/01/30 00:17:25;;;;;;;;;;;7.90;72.90;;;;;;5034887;28;19948;-82
2022/01/30 00:19:59;;;;;;;;;;;7.80;73.30;;;;;;5036481;28;19940;-82
2022/01/30 00:24:55;;;;;;;;;;;7.70;74.20;;;;;;5042613;28;19905;-80
2022/01/30 00:27:29;;;;;;;;;;;7.70;73.30;;;;;;5038969;28;19943;-82
2022/01/30 00:29:54;;;;;;;;;;;7.80;73.30;;;;;;5038649;28;19917;-81
2022/01/30 00:32:20;;;;;;;;;;;7.80;73.30;;;;;;5040525;28;19930;-82
2022/01/30 00:34:45;;;;;;;;;;;7.80;73.50;;;;;;5040096;28;19913;-81
2022/01/30 00:37:11;;;;;;;;;;;7.80;73.30;;;;;;5030918;28;19924;-82
2022/01/30 00:39:36;;;;;;;;;;;7.70;73.70;;;;;;5030756;28;19909;-82
2022/01/30 00:42:02;;;;;;;;;;;7.70;73.90;;;;;;5027304;28;19959;-83
2022/01/30 00:44:30;;;;;;;;;;;7.70;73.30;;;;;;5033291;28;19975;-82
2022/01/30 00:46:56;;;;;;;;;;;7.70;73.60;;;;;;5030074;28;19940;-82
2022/01/30 00:49:22;;;;;;;;;;;7.50;74.20;;;;;;5032046;28;20046;-82
2022/01/30 00:51:48;;;;;;;;;;;7.50;74.10;;;;;;5031500;28;19913;-82
2022/01/30 00:54:13;;;;;;;;;;;7.40;74.30;;;;;;5030484;28;20012;-82
2022/01/30 00:56:39;;;;;;;;;;;7.30;74.40;;;;;;5029839;28;20000;-82
2022/01/30 00:59:04;;;;;;;;;;;7.30;75.10;;;;;;5032767;28;20055;-83
2022/01/30 01:01:32;;;;;;;;;;;7.20;74.70;;;;;;5034693;28;19921;-84
2022/01/30 01:03:58;;;;;;;;;;;7.10;75.50;;;;;;5033397;28;20561;-81
2022/01/30 01:06:23;;;;;;;;;;;7.10;74.70;;;;;;5028509;28;19992;-81
2022/01/30 01:08:52;;;;;;;;;;;7.00;74.90;;;;;;5032265;28;20063;-81
2022/01/30 01:20:48;;;;;;;;;;;7.00;74.40;;;;;;5033423;28;20441;-82
2022/01/30 01:25:00;;;;;;;;;;;7.00;73.90;;;;;;5030529;28;19967;-82
2022/01/30 01:27:25;;;;;;;;;;;6.90;74.40;;;;;;5033722;28;20047;-82
2022/01/30 01:29:51;;;;;;;;;;;6.90;74.20;;;;;;5031814;28;19924;-83
2022/01/30 01:32:16;;;;;;;;;;;6.90;74.50;;;;;;5031476;28;19913;-82
2022/01/30 01:34:42;;;;;;;;;;;7.00;73.80;;;;;;5034105;28;20018;-83
2022/01/30 01:37:10;;;;;;;;;;;7.00;73.60;;;;;;5031503;28;19924;-81
2022/01/30 01:39:35;;;;;;;;;;;7.00;73.70;;;;;;5031971;28;19944;-81
2022/01/30 01:42:01;;;;;;;;;;;7.00;74.40;;;;;;5033491;28;20408;-81
2022/01/30 01:44:36;;;;;;;;;;;7.00;74.70;;;;;;5034002;28;19964;-81
2022/01/30 01:47:02;;;;;;;;;;;7.00;74.50;;;;;;5031143;28;19936;-83
2022/01/30 01:49:31;;;;;;;;;;;7.00;75.30;;;;;;5032800;28;20004;-81
2022/01/30 01:54:41;;;;;;;;;;;7.00;75.20;;;;;;5033480;28;19940;-81
2022/01/30 01:57:07;;;;;;;;;;;7.00;75.20;;;;;;5034092;28;19921;-82
2022/01/30 01:59:32;;;;;;;;;;;7.00;75.20;;;;;;5030911;28;19913;-81
2022/01/30 02:02:00;;;;;;;;;;;6.80;75.70;;;;;;5031093;28;19913;-81
2022/01/30 02:04:26;;;;;;;;;;;6.80;75.40;;;;;;5029580;28;19913;-82
2022/01/30 02:07:02;;;;;;;;;;;6.90;75.60;;;;;;5032576;28;19936;-82
2022/01/30 02:09:30;;;;;;;;;;;6.80;75.40;;;;;;5031533;28;20107;-81
2022/01/30 02:11:56;;;;;;;;;;;6.80;75.80;;;;;;5032927;28;19913;-81
2022/01/30 02:14:36;;;;;;;;;;;6.80;75.50;;;;;;5033719;28;19913;-81
2022/01/30 02:27:56;;;;;;;;;;;7.10;74.30;;;;;;5032088;28;20432;-81
2022/01/30 02:30:24;;;;;;;;;;;7.10;75.00;;;;;;5030924;28;19913;-82
2022/01/30 02:32:51;;;;;;;;;;;7.10;75.60;;;;;;5032588;28;19913;-81
2022/01/30 02:35:16;;;;;;;;;;;7.10;74.60;;;;;;5031091;28;19920;-82
2022/01/30 02:37:42;;;;;;;;;;;7.00;74.80;;;;;;5030064;28;19917;-82
2022/01/30 02:40:11;;;;;;;;;;;7.00;75.30;;;;;;5032718;28;19917;-82
2022/01/30 02:42:40;;;;;;;;;;;6.80;75.50;;;;;;5030725;28;19952;-82
2022/01/30 02:45:09;;;;;;;;;;;6.80;76.40;;;;;;5032763;28;19921;-83
2022/01/30 02:52:34;;;;;;;;;;;6.60;76.60;;;;;;5033125;28;19928;-81
2022/01/30 02:55:00;;;;;;;;;;;6.50;76.80;;;;;;5033170;28;19987;-81
2022/01/30 02:57:25;;;;;;;;;;;6.50;77.00;;;;;;5036538;28;20345;-81
2022/01/30 02:59:51;;;;;;;;;;;6.50;76.70;;;;;;5036904;28;19921;-81
2022/01/30 03:02:17;;;;;;;;;;;6.40;77.50;;;;;;5030622;28;19917;-81
2022/01/30 03:04:43;;;;;;;;;;;6.50;77.00;;;;;;5037589;28;20054;-81
2022/01/30 03:07:08;;;;;;;;;;;6.50;76.90;;;;;;5040626;28;19996;-82
2022/01/30 03:09:34;;;;;;;;;;;6.40;77.20;;;;;;5036589;28;20004;-82
2022/01/30 03:12:00;;;;;;;;;;;6.30;77.70;;;;;;5051638;28;19924;-82
2022/01/30 03:14:25;;;;;;;;;;;6.30;78.30;;;;;;5038821;28;19925;-82
2022/01/30 03:16:51;;;;;;;;;;;6.30;78.80;;;;;;5039534;28;19928;-82
2022/01/30 03:19:17;;;;;;;;;;;6.20;78.50;;;;;;5037560;28;19935;-82
2022/01/30 03:21:42;;;;;;;;;;;6.10;78.60;;;;;;5040213;28;20385;-82
2022/01/30 03:24:08;;;;;;;;;;;6.10;78.60;;;;;;5040811;28;19913;-82
2022/01/30 03:26:38;;;;;;;;;;;6.10;78.50;;;;;;5038968;28;19960;-83
2022/01/30 03:29:06;;;;;;;;;;;6.10;78.30;;;;;;5034104;28;19921;-82
2022/01/30 03:31:33;;;;;;;;;;;6.10;78.90;;;;;;5034445;28;19948;-82
2022/01/30 03:33:58;;;;;;;;;;;6.00;79.20;;;;;;5030761;28;19950;-83
2022/01/30 03:36:24;;;;;;;;;;;6.00;79.30;;;;;;5031176;28;19921;-82
2022/01/30 03:38:49;;;;;;;;;;;6.00;78.90;;;;;;5035719;28;20373;-82
2022/01/30 03:41:15;;;;;;;;;;;6.00;79.20;;;;;;5035370;28;19998;-83
2022/01/30 03:43:40;;;;;;;;;;;6.10;79.00;;;;;;5033465;28;19913;-82
2022/01/30 03:46:07;;;;;;;;;;;6.10;78.30;;;;;;5032447;28;19980;-82
2022/01/30 03:48:32;;;;;;;;;;;6.20;78.00;;;;;;5035064;28;20829;-82
2022/01/30 03:50:58;;;;;;;;;;;6.30;77.90;;;;;;5031719;28;20031;-82
2022/01/30 03:53:23;;;;;;;;;;;6.30;77.70;;;;;;5033424;28;19955;-83
2022/01/30 03:55:49;;;;;;;;;;;6.30;77.70;;;;;;5034706;28;19913;-82
2022/01/30 03:58:14;;;;;;;;;;;6.30;77.60;;;;;;5034216;28;19936;-82
2022/01/30 04:00:40;;;;;;;;;;;6.30;77.70;;;;;;5032935;28;19917;-82
2022/01/30 04:03:05;;;;;;;;;;;6.30;77.60;;;;;;5031376;28;19952;-82
2022/01/30 04:05:31;;;;;;;;;;;6.30;77.70;;;;;;5031387;28;19979;-82
2022/01/30 04:08:00;;;;;;;;;;;6.30;77.50;;;;;;5035368;28;19925;-82
2022/01/30 04:10:26;;;;;;;;;;;6.30;77.90;;;;;;5034187;28;20305;-81
2022/01/30 04:12:51;;;;;;;;;;;6.30;77.40;;;;;;5038526;28;19920;-81
2022/01/30 04:15:17;;;;;;;;;;;6.20;77.60;;;;;;5045599;28;19901;-81
2022/01/30 04:17:42;;;;;;;;;;;6.20;77.60;;;;;;5046617;28;19917;-82
2022/01/30 04:20:08;;;;;;;;;;;6.10;78.00;;;;;;5046878;28;19956;-80
2022/01/30 04:22:34;;;;;;;;;;;6.30;78.30;;;;;;5040695;28;19979;-82
2022/01/30 04:24:59;;;;;;;;;;;6.30;77.70;;;;;;5032252;28;20171;-82
2022/01/30 04:27:24;;;;;;;;;;;6.30;77.50;;;;;;5033095;28;19928;-81
2022/01/30 04:29:50;;;;;;;;;;;6.30;77.00;;;;;;5031746;28;20329;-82
2022/01/30 04:32:16;;;;;;;;;;;6.30;77.40;;;;;;5029735;28;19929;-82
2022/01/30 04:34:44;;;;;;;;;;;6.40;77.10;;;;;;5030184;28;20274;-83
2022/01/30 04:37:20;;;;;;;;;;;6.40;77.00;;;;;;5031849;28;19921;-82
2022/01/30 04:59:14;;;;;;;;;;;6.30;77.50;;;;;;5034916;28;20007;-82
2022/01/30 05:01:12;;;;;;;;;;;6.30;77.70;;;;;;5029100;28;19928;-83
2022/01/30 05:03:54;;;;;;;;;;;6.30;77.70;;;;;;5033564;28;20595;-82
2022/01/30 05:06:30;;;;;;;;;;;6.40;76.70;;;;;;5032951;28;19917;-83
2022/01/30 05:08:56;;;;;;;;;;;6.30;77.10;;;;;;5033519;28;19945;-81
2022/01/30 05:11:21;;;;;;;;;;;6.40;76.90;;;;;;5033837;28;19987;-84
2022/01/30 05:13:49;;;;;;;;;;;6.40;76.50;;;;;;5030379;28;19913;-83
2022/01/30 05:16:16;;;;;;;;;;;6.40;76.50;;;;;;5031446;28;20062;-81
2022/01/30 05:18:42;;;;;;;;;;;6.40;76.00;;;;;;5028579;28;19917;-83
2022/01/30 05:21:07;;;;;;;;;;;6.40;76.50;;;;;;5028564;28;20900;-82
2022/01/30 05:23:33;;;;;;;;;;;6.40;76.10;;;;;;5030064;28;20396;-83
2022/01/30 05:26:02;;;;;;;;;;;6.30;75.90;;;;;;5030952;28;19913;-82
2022/01/30 05:28:28;;;;;;;;;;;6.30;76.50;;;;;;5029049;28;20007;-81
2022/01/30 05:30:54;;;;;;;;;;;6.30;77.10;;;;;;5029164;28;19971;-82
2022/01/30 05:33:19;;;;;;;;;;;6.40;77.60;;;;;;5025684;28;19929;-81
2022/01/30 05:35:45;;;;;;;;;;;6.30;78.10;;;;;;5028054;28;19913;-82
2022/01/30 05:38:11;;;;;;;;;;;6.30;78.60;;;;;;5029492;28;19928;-81
2022/01/30 05:40:36;;;;;;;;;;;6.10;78.00;;;;;;5028189;28;19913;-81
2022/01/30 05:43:03;;;;;;;;;;;6.10;78.20;;;;;;5029076;28;20003;-81
2022/01/30 05:45:34;;;;;;;;;;;6.10;78.40;;;;;;5031028;28;19913;-82
2022/01/30 05:48:05;;;;;;;;;;;6.20;77.70;;;;;;5047558;28;19960;-82
2022/01/30 05:50:31;;;;;;;;;;;6.20;77.80;;;;;;5030952;28;20039;-82
2022/01/30 05:52:56;;;;;;;;;;;6.30;77.30;;;;;;5031729;28;19941;-81
2022/01/30 05:55:22;;;;;;;;;;;6.20;77.30;;;;;;5037342;28;20265;-82
2022/01/30 05:57:47;;;;;;;;;;;6.20;77.20;;;;;;5039512;28;19918;-81
2022/01/30 06:00:14;;;;;;;;;;;6.20;76.80;;;;;;5036317;28;20197;-83
2022/01/30 06:02:41;;;;;;;;;;;6.10;76.40;;;;;;5041691;28;19929;-82
2022/01/30 06:05:08;;;;;;;;;;;6.10;76.20;;;;;;5043481;28;19913;-81
2022/01/30 06:07:34;;;;;;;;;;;6.20;76.30;;;;;;5045618;28;19917;-81
2022/01/30 06:10:00;;;;;;;;;;;6.20;77.00;;;;;;5041906;28;19932;-82
2022/01/30 06:12:25;;;;;;;;;;;6.20;76.50;;;;;;5044905;28;20373;-83
2022/01/30 06:14:51;;;;;;;;;;;6.20;76.10;;;;;;5046520;28;19913;-81
2022/01/30 06:17:16;;;;;;;;;;;6.20;75.90;;;;;;5045263;28;20031;-84
2022/01/30 06:19:42;;;;;;;;;;;6.20;76.00;;;;;;5045313;28;20512;-82
2022/01/30 06:22:07;;;;;;;;;;;6.20;76.50;;;;;;5046199;28;19913;-83
2022/01/30 06:24:33;;;;;;;;;;;6.10;77.00;;;;;;5045511;28;19980;-82
2022/01/30 06:26:58;;;;;;;;;;;6.10;76.40;;;;;;5044895;28;19913;-82
2022/01/30 06:29:24;;;;;;;;;;;6.10;76.50;;;;;;5042211;28;19901;-81
2022/01/30 06:31:49;;;;;;;;;;;6.10;76.50;;;;;;5041759;28;19943;-82
2022/01/30 06:34:15;;;;;;;;;;;6.10;76.40;;;;;;5040065;28;19913;-82
2022/01/30 06:36:40;;;;;;;;;;;6.00;76.40;;;;;;5039740;28;19997;-82
2022/01/30 06:39:06;;;;;;;;;;;6.00;76.90;;;;;;5039488;28;19914;-79
2022/01/30 06:41:31;;;;;;;;;;;6.00;77.20;;;;;;5039321;28;19923;-82
2022/01/30 06:43:57;;;;;;;;;;;6.00;76.80;;;;;;5040415;28;19913;-82
2022/01/30 06:46:22;;;;;;;;;;;5.90;76.90;;;;;;5040797;28;19914;-81
2022/01/30 06:48:48;;;;;;;;;;;5.90;77.30;;;;;;5040019;28;19913;-81
2022/01/30 06:51:13;;;;;;;;;;;6.00;77.10;;;;;;5030930;28;19978;-81
2022/01/30 06:53:39;;;;;;;;;;;5.90;77.00;;;;;;5036977;28;20119;-82
2022/01/30 06:56:06;;;;;;;;;;;5.80;77.50;;;;;;5040264;28;19917;-82
2022/01/30 06:58:31;;;;;;;;;;;5.80;77.10;;;;;;5039227;28;19921;-83
2022/01/30 07:00:57;;;;;;;;;;;5.80;77.70;;;;;;5037006;28;19923;-82
2022/01/30 07:03:22;;;;;;;;;;;5.70;77.70;;;;;;5038939;28;19924;-82
2022/01/30 07:05:47;;;;;;;;;;;5.70;77.60;;;;;;5039849;28;20289;-82
2022/01/30 07:08:13;;;;;;;;;;;5.60;77.70;;;;;;5035575;28;19913;-81
2022/01/30 07:10:39;;;;;;;;;;;5.60;77.50;;;;;;5038873;28;19966;-81
2022/01/30 07:13:06;;;;;;;;;;;5.60;77.90;;;;;;5047843;28;19928;-81
2022/01/30 07:15:32;;;;;;;;;;;5.60;77.70;;;;;;5045266;28;20437;-81
2022/01/30 07:17:58;;;;;;;;;;;5.50;77.80;;;;;;5044988;28;19917;-80
2022/01/30 07:20:23;;;;;;;;;;;5.60;78.00;;;;;;5042539;28;19913;-81
2022/01/30 07:22:49;;;;;;;;;;;5.60;78.10;;;;;;5041670;28;20405;-81
2022/01/30 07:25:15;;;;;;;;;;;5.60;77.90;;;;;;5036770;28;19933;-81
2022/01/30 07:27:42;;;;;;;;;;;5.70;77.80;;;;;;5036420;28;19996;-83
2022/01/30 07:30:08;;;;;;;;;;;5.70;77.90;;;;;;5034712;28;19993;-82
2022/01/30 07:32:33;;;;;;;;;;;5.60;78.00;;;;;;5034378;28;19921;-82
2022/01/30 07:34:59;;;;;;;;;;;5.60;77.70;;;;;;5034929;28;19913;-83
2022/01/30 07:37:24;;;;;;;;;;;5.70;77.70;;;;;;5034279;28;19992;-81
2022/01/30 07:39:50;;;;;;;;;;;5.70;77.80;;;;;;5035089;28;19925;-82
2022/01/30 07:42:16;;;;;;;;;;;5.70;77.90;;;;;;5031150;28;19920;-82
2022/01/30 07:44:42;;;;;;;;;;;5.70;78.00;;;;;;5036023;28;19935;-82
2022/01/30 07:47:07;;;;;;;;;;;5.70;78.50;;;;;;5037228;28;19964;-82
2022/01/30 07:49:32;;;;;;;;;;;5.80;78.30;;;;;;5036160;28;19921;-84
2022/01/30 07:51:58;;;;;;;;;;;5.80;77.20;;;;;;5033069;28;19913;-82
2022/01/30 07:54:24;;;;;;;;;;;5.80;78.10;;;;;;5032447;28;19999;-82
2022/01/30 07:56:49;;;;;;;;;;;5.80;77.50;;;;;;5032716;28;20407;-81
2022/01/30 07:59:14;;;;;;;;;;;5.80;77.40;;;;;;5032242;28;19924;-81
2022/01/30 08:01:40;;;;;;;;;;;5.80;77.30;;;;;;5029578;28;20092;-81
2022/01/30 08:04:07;;;;;;;;;;;5.70;77.50;;;;;;5033450;28;19913;-81
2022/01/30 08:06:33;;;;;;;;;;;5.70;77.60;;;;;;5031425;28;19917;-80
2022/01/30 08:08:59;;;;;;;;;;;5.60;78.20;;;;;;5030377;28;19935;-82
2022/01/30 08:11:24;;;;;;;;;;;5.50;78.40;;;;;;5032187;28;19917;-80
2022/01/30 08:13:49;;;;;;;;;;;5.50;78.30;;;;;;5034277;28;19917;-83
2022/01/30 08:16:15;;;;;;;;;;;5.60;78.30;;;;;;5032834;28;20392;-81
2022/01/30 08:18:40;;;;;;;;;;;5.60;77.80;;;;;;5033512;28;19932;-81
2022/01/30 08:21:06;;;;;;;;;;;5.60;77.60;;;;;;5033139;28;19913;-82
2022/01/30 08:23:33;;;;;;;;;;;5.60;77.40;;;;;;5035718;28;19913;-82
2022/01/30 08:25:59;;;;;;;;;;;5.60;78.00;;;;;;5035943;28;19936;-82
2022/01/30 08:28:24;;;;;;;;;;;5.50;77.70;;;;;;5036323;28;20516;-82
2022/01/30 08:30:53;;;;;;;;;;;5.50;78.20;;;;;;5031902;28;20582;-81
2022/01/30 08:33:19;;;;;;;;;;;5.60;78.40;;;;;;5032259;28;19913;-81
2022/01/30 08:35:45;;;;;;;;;;;5.60;78.00;;;;;;5029331;28;19959;-81
2022/01/30 08:38:14;;;;;;;;;;;5.60;77.80;;;;;;5027117;28;20000;-82
2022/01/30 08:40:40;;;;;;;;;;;5.60;77.70;;;;;;5032087;28;19917;-81
2022/01/30 08:43:05;;;;;;;;;;;5.60;77.30;;;;;;5014687;28;19920;-82
2022/01/30 08:45:31;;;;;;;;;;;5.70;77.30;;;;;;5024814;28;19917;-82
2022/01/30 08:47:56;;;;;;;;;;;5.90;76.60;;;;;;5030334;28;19944;-81
2022/01/30 08:50:22;;;;;;;;;;;5.80;76.90;;;;;;5029742;28;19917;-82
2022/01/30 08:52:48;;;;;;;;;;;5.80;76.60;;;;;;5028665;28;19913;-81
2022/01/30 08:55:14;;;;;;;;;;;5.90;76.80;;;;;;5033426;28;19952;-81
2022/01/30 08:57:39;;;;;;;;;;;5.90;76.90;;;;;;5031212;28;19917;-82
2022/01/30 09:00:06;;;;;;;;;;;5.90;76.80;;;;;;5034136;28;19913;-81
2022/01/30 09:02:32;;;;;;;;;;;6.00;76.90;;;;;;5032451;28;19917;-82
2022/01/30 09:04:58;;;;;;;;;;;6.10;76.20;;;;;;5039306;28;19923;-82
2022/01/30 09:07:23;;;;;;;;;;;6.20;75.40;;;;;;5034941;28;19983;-82
2022/01/30 09:09:49;;;;;;;;;;;6.30;75.10;;;;;;5028875;28;19923;-82
2022/01/30 09:12:14;;;;;;;;;;;6.40;75.50;;;;;;5035662;28;19917;-82
2022/01/30 09:14:42;;;;;;;;;;;6.60;74.80;;;;;;5034703;28;19924;-83
2022/01/30 09:17:12;;;;;;;;;;;6.50;74.40;;;;;;5033879;28;19919;-83
2022/01/30 09:19:38;;;;;;;;;;;6.60;74.70;;;;;;5034255;28;20251;-82
2022/01/30 09:22:04;;;;;;;;;;;6.60;74.40;;;;;;5035749;28;19967;-83
2022/01/30 09:24:29;;;;;;;;;;;6.60;74.40;;;;;;5034079;28;19917;-82
2022/01/30 09:26:55;;;;;;;;;;;6.60;74.50;;;;;;5032775;28;20296;-81
2022/01/30 09:29:22;;;;;;;;;;;6.70;74.70;;;;;;5047292;28;19917;-82
2022/01/30 09:31:48;;;;;;;;;;;6.80;74.80;;;;;;5033001;28;19943;-83
2022/01/30 09:34:14;;;;;;;;;;;6.80;75.40;;;;;;5031499;28;20344;-82
2022/01/30 09:36:39;;;;;;;;;;;6.70;73.90;;;;;;5032406;28;19940;-81
2022/01/30 09:39:05;;;;;;;;;;;6.60;74.10;;;;;;5031353;28;19940;-83
2022/01/30 09:41:31;;;;;;;;;;;6.60;74.80;;;;;;5033720;28;19972;-80
2022/01/30 09:43:57;;;;;;;;;;;6.60;74.70;;;;;;5034622;28;19924;-82
2022/01/30 09:46:23;;;;;;;;;;;6.50;75.30;;;;;;5048838;28;19921;-80
2022/01/30 09:48:49;;;;;;;;;;;6.50;75.00;;;;;;5035243;28;19913;-80
2022/01/30 09:51:14;;;;;;;;;;;6.50;75.90;;;;;;5034892;28;19928;-81
2022/01/30 09:53:40;;;;;;;;;;;6.60;75.30;;;;;;5036116;28;19916;-82
2022/01/30 09:56:06;;;;;;;;;;;6.50;75.00;;;;;;5049406;28;19913;-81
2022/01/30 09:58:32;;;;;;;;;;;6.50;75.00;;;;;;5046856;28;19976;-81
2022/01/30 10:00:58;;;;;;;;;;;6.50;74.40;;;;;;5031393;28;20379;-82
2022/01/30 10:03:26;;;;;;;;;;;6.50;74.90;;;;;;5031114;28;19920;-80
2022/01/30 10:05:59;;;;;;;;;;;6.50;74.10;;;;;;5033083;28;19928;-83
2022/01/30 10:08:29;;;;;;;;;;;6.50;73.90;;;;;;5032623;28;19985;-81
2022/01/30 10:10:59;;;;;;;;;;;6.50;74.30;;;;;;5028673;28;19955;-81
2022/01/30 10:13:29;;;;;;;;;;;6.60;74.30;;;;;;5031776;28;19960;-80
2022/01/30 10:15:56;;;;;;;;;;;6.70;73.90;;;;;;5034017;28;19960;-84
2022/01/30 10:18:22;;;;;;;;;;;6.80;74.10;;;;;;5036643;28;19973;-83
2022/01/30 10:20:48;;;;;;;;;;;6.90;73.10;;;;;;5032867;28;19924;-83
2022/01/30 10:23:14;;;;;;;;;;;7.00;72.80;;;;;;5032609;28;19913;-80
2022/01/30 10:25:48;;;;;;;;;;;6.90;71.50;;;;;;5039471;28;20009;-81
2022/01/30 10:28:15;;;;;;;;;;;6.80;71.90;;;;;;5041280;28;19913;-81
2022/01/30 10:30:48;;;;;;;;;;;6.80;72.10;;;;;;5043563;28;19935;-82
2022/01/30 10:33:14;;;;;;;;;;;6.80;71.90;;;;;;5042536;28;20335;-82
2022/01/30 10:35:52;;;;;;;;;;;6.80;71.60;;;;;;5043011;28;19964;-81
2022/01/30 10:38:19;;;;;;;;;;;6.70;71.70;;;;;;5034082;28;20354;-81
2022/01/30 10:40:50;;;;;;;;;;;6.70;71.40;;;;;;5030346;28;19948;-82
2022/01/30 10:43:19;;;;;;;;;;;6.80;70.70;;;;;;5029606;28;19971;-80
2022/01/30 10:45:44;;;;;;;;;;;6.80;70.50;;;;;;5028476;28;19917;-83
2022/01/30 10:48:12;;;;;;;;;;;6.90;70.00;;;;;;5028570;28;20381;-79
2022/01/30 10:50:44;;;;;;;;;;;6.90;69.30;;;;;;5029390;28;19917;-82
2022/01/30 10:53:30;;;;;;;;;;;6.90;69.20;;;;;;5029737;28;19940;-80
2022/01/30 10:55:56;;;;;;;;;;;6.90;68.70;;;;;;5026246;28;19913;-81
2022/01/30 10:58:23;;;;;;;;;;;7.00;69.30;;;;;;5026375;28;19975;-82
2022/01/30 11:00:51;;;;;;;;;;;7.10;66.90;;;;;;5028912;28;19913;-83
2022/01/30 11:03:36;;;;;;;;;;;7.10;66.10;;;;;;5023227;28;20003;-83
2022/01/30 11:06:02;;;;;;;;;;;7.20;65.90;;;;;;5030900;28;19924;-84
2022/01/30 11:08:33;;;;;;;;;;;7.20;66.60;;;;;;5036876;28;19917;-83
2022/01/30 11:10:59;;;;;;;;;;;7.20;66.10;;;;;;5050867;28;19928;-81
2022/01/30 11:13:32;;;;;;;;;;;7.30;64.10;;;;;;5034773;28;19917;-84
2022/01/30 11:16:55;;;;;;;;;;;7.40;65.30;;;;;;5031426;28;19925;-85
2022/01/30 11:18:44;;;;;;;;;;;7.40;64.50;;;;;;5034995;28;19926;-84
2022/01/30 11:21:10;;;;;;;;;;;7.40;64.70;;;;;;5031950;28;19913;-84
2022/01/30 11:23:37;;;;;;;;;;;7.50;64.00;;;;;;5032090;28;19963;-82
2022/01/30 11:26:03;;;;;;;;;;;7.60;63.20;;;;;;5032302;28;19913;-83
2022/01/30 11:28:29;;;;;;;;;;;7.60;63.30;;;;;;5036130;28;19948;-82
2022/01/30 11:30:54;;;;;;;;;;;7.60;63.40;;;;;;5033322;28;19953;-83
2022/01/30 11:33:21;;;;;;;;;;;7.60;63.00;;;;;;5030968;28;19921;-81
2022/01/30 11:35:46;;;;;;;;;;;7.70;62.70;;;;;;5032841;28;19921;-84
2022/01/30 11:38:12;;;;;;;;;;;7.70;63.00;;;;;;5027788;28;19917;-78
2022/01/30 11:40:38;;;;;;;;;;;7.60;62.00;;;;;;5029770;28;19919;-78
2022/01/30 11:43:07;;;;;;;;;;;7.60;61.80;;;;;;5028846;28;19959;-77
2022/01/30 11:45:33;;;;;;;;;;;7.60;61.60;;;;;;5027729;28;19917;-80
2022/01/30 11:48:12;;;;;;;;;;;7.80;62.20;;;;;;5028283;28;19924;-78
2022/01/30 11:50:38;;;;;;;;;;;7.80;62.30;;;;;;5029926;28;19927;-80
2022/01/30 11:53:04;;;;;;;;;;;7.70;61.60;;;;;;5041547;28;19989;-78
2022/01/30 11:55:49;;;;;;;;;;;7.80;61.80;;;;;;5044563;28;19917;-79
2022/01/30 11:58:30;;;;;;;;;;;7.90;62.10;;;;;;5036774;28;19960;-78
2022/01/30 12:00:58;;;;;;;;;;;7.80;61.90;;;;;;5027145;28;19921;-79
2022/01/30 12:03:28;;;;;;;;;;;7.70;62.00;;;;;;5030947;28;19914;-80
2022/01/30 12:05:54;;;;;;;;;;;7.80;62.00;;;;;;5027349;28;19917;-80
2022/01/30 12:08:39;;;;;;;;;;;7.90;61.70;;;;;;5031001;28;19968;-79
2022/01/30 12:11:04;;;;;;;;;;;7.90;62.00;;;;;;5028961;28;19964;-79
2022/01/30 12:13:43;;;;;;;;;;;7.80;61.00;;;;;;5029854;28;20560;-80
2022/01/30 12:16:28;;;;;;;;;;;7.80;60.60;;;;;;5024693;28;19913;-81
2022/01/30 12:18:54;;;;;;;;;;;7.70;61.70;;;;;;5047879;28;19917;-79
2022/01/30 12:21:25;;;;;;;;;;;7.80;62.00;;;;;;5047086;28;19909;-80
2022/01/30 12:23:51;;;;;;;;;;;7.90;61.60;;;;;;5046054;28;19923;-80
2022/01/30 12:26:16;;;;;;;;;;;7.90;61.80;;;;;;5050200;28;19948;-79
2022/01/30 12:28:43;;;;;;;;;;;8.00;61.30;;;;;;5047289;28;19913;-81
2022/01/30 12:31:30;;;;;;;;;;;7.90;61.50;;;;;;5032784;28;19960;-79
2022/01/30 12:34:03;;;;;;;;;;;7.90;62.60;;;;;;5027821;28;19939;-82
2022/01/30 12:36:30;;;;;;;;;;;8.00;60.60;;;;;;5027501;28;20019;-82
2022/01/30 12:39:14;;;;;;;;;;;7.90;60.90;;;;;;5034337;28;19921;-80
2022/01/30 12:41:40;;;;;;;;;;;8.00;60.30;;;;;;5038742;28;19913;-81
2022/01/30 12:44:07;;;;;;;;;;;7.90;60.20;;;;;;5054047;28;19962;-81
2022/01/30 12:46:46;;;;;;;;;;;7.80;60.60;;;;;;5036541;28;20385;-83
2022/01/30 12:49:13;;;;;;;;;;;7.70;60.60;;;;;;5037058;28;20289;-83
2022/01/30 12:51:40;;;;;;;;;;;7.60;59.90;;;;;;5032776;28;19917;-81
2022/01/30 12:54:06;;;;;;;;;;;7.60;59.60;;;;;;5031627;28;19943;-82
2022/01/30 12:56:32;;;;;;;;;;;7.60;60.30;;;;;;5035007;28;19917;-81
2022/01/30 12:58:59;;;;;;;;;;;7.70;60.00;;;;;;5038355;28;19971;-81
2022/01/30 13:01:27;;;;;;;;;;;7.70;60.10;;;;;;5031631;28;20564;-77
2022/01/30 13:04:10;;;;;;;;;;;7.70;59.70;;;;;;5032186;28;20012;-77
2022/01/30 13:06:36;;;;;;;;;;;7.70;60.30;;;;;;5029821;28;19917;-78
2022/01/30 13:09:02;;;;;;;;;;;7.90;60.00;;;;;;5039552;28;20699;-79
2022/01/30 13:11:28;;;;;;;;;;;8.00;59.30;;;;;;5040209;28;19917;-80
2022/01/30 13:13:57;;;;;;;;;;;7.90;59.40;;;;;;5053137;28;19928;-80
2022/01/30 13:16:24;;;;;;;;;;;8.00;59.30;;;;;;5043623;28;19928;-80
2022/01/30 13:18:49;;;;;;;;;;;7.90;60.00;;;;;;5049490;28;19912;-81
2022/01/30 13:21:20;;;;;;;;;;;7.80;61.20;;;;;;5053229;28;19921;-81
2022/01/30 13:23:45;;;;;;;;;;;8.00;61.20;;;;;;5047579;28;19928;-81
2022/01/30 13:26:11;;;;;;;;;;;8.00;61.40;;;;;;5050908;28;19930;-80
2022/01/30 13:28:36;;;;;;;;;;;8.00;62.10;;;;;;5051757;28;19980;-80
2022/01/30 13:31:12;;;;;;;;;;;8.00;62.50;;;;;;5046838;28;19977;-82
2022/01/30 13:33:37;;;;;;;;;;;8.00;63.10;;;;;;5061181;28;19987;-83
2022/01/30 13:36:03;;;;;;;;;;;8.00;63.30;;;;;;5044209;28;19921;-83
2022/01/30 13:38:28;;;;;;;;;;;8.10;63.10;;;;;;5042096;28;20416;-83
2022/01/30 13:40:59;;;;;;;;;;;8.10;62.10;;;;;;5040144;28;20286;-81
2022/01/30 13:43:28;;;;;;;;;;;8.00;61.70;;;;;;5041454;28;19952;-83
2022/01/30 13:48:20;;;;;;;;;;;8.20;62.80;;;;;;5041021;28;20007;-82
2022/01/30 13:50:58;;;;;;;;;;;8.30;61.20;;;;;;5038943;28;20002;-83
2022/01/30 13:53:25;;;;;;;;;;;8.30;60.50;;;;;;5030303;28;19921;-81
2022/01/30 13:55:53;;;;;;;;;;;8.10;59.60;;;;;;5035768;28;19917;-80
2022/01/30 13:58:20;;;;;;;;;;;8.20;58.90;;;;;;5035071;28;19963;-84
2022/01/30 14:00:45;;;;;;;;;;;8.10;57.40;;;;;;5033488;28;19965;-82
2022/01/30 14:03:20;;;;;;;;;;;8.10;58.40;;;;;;5036041;28;19928;-82
2022/01/30 14:05:45;;;;;;;;;;;8.20;58.30;;;;;;5034709;28;19940;-83
2022/01/30 14:08:12;;;;;;;;;;;8.30;57.00;;;;;;5033695;28;19921;-82
2022/01/30 14:10:38;;;;;;;;;;;8.30;56.80;;;;;;5033489;28;19917;-82
2022/01/30 14:13:08;;;;;;;;;;;8.30;57.10;;;;;;5033422;28;19917;-81
2022/01/30 14:15:36;;;;;;;;;;;8.20;56.50;;;;;;5027668;28;19948;-83
2022/01/30 14:18:13;;;;;;;;;;;8.30;56.40;;;;;;5032633;28;19921;-81
2022/01/30 14:20:40;;;;;;;;;;;8.30;56.80;;;;;;5030923;28;20020;-82
2022/01/30 14:23:07;;;;;;;;;;;8.20;56.30;;;;;;5029503;28;19913;-79
2022/01/30 14:25:33;;;;;;;;;;;8.10;57.70;;;;;;5033413;28;19975;-81
2022/01/30 14:27:58;;;;;;;;;;;8.00;58.00;;;;;;5032491;28;19921;-83
2022/01/30 14:30:40;;;;;;;;;;;8.10;57.30;;;;;;5030066;28;20066;-80
2022/01/30 14:33:05;;;;;;;;;;;7.90;56.90;;;;;;5035425;28;20029;-82
2022/01/30 14:35:36;;;;;;;;;;;7.80;57.40;;;;;;5036586;28;19945;-82
2022/01/30 14:38:05;;;;;;;;;;;7.80;57.80;;;;;;5035371;28;19931;-83
2022/01/30 14:40:31;;;;;;;;;;;7.80;58.50;;;;;;5041091;28;19921;-78
2022/01/30 14:42:57;;;;;;;;;;;7.80;58.90;;;;;;5044002;28;19913;-83
2022/01/30 14:45:23;;;;;;;;;;;7.90;58.20;;;;;;5042171;28;20004;-83
2022/01/30 14:47:49;;;;;;;;;;;7.90;57.70;;;;;;5036920;28;20389;-83
2022/01/30 14:50:15;;;;;;;;;;;7.80;58.00;;;;;;5031825;28;19927;-83
2022/01/30 14:52:40;;;;;;;;;;;7.70;58.40;;;;;;5033726;28;20000;-83
2022/01/30 14:55:06;;;;;;;;;;;7.70;58.20;;;;;;5033478;28;20172;-82
2022/01/30 14:57:31;;;;;;;;;;;7.60;58.70;;;;;;5032453;28;19948;-82
2022/01/30 14:59:57;;;;;;;;;;;7.60;58.00;;;;;;5032100;28;19928;-82
2022/01/30 15:02:22;;;;;;;;;;;7.60;58.90;;;;;;5032248;28;19959;-83
2022/01/30 15:04:48;;;;;;;;;;;7.50;59.00;;;;;;5033181;28;19913;-83
2022/01/30 15:07:14;;;;;;;;;;;7.50;58.60;;;;;;5028528;28;19961;-84
2022/01/30 15:09:40;;;;;;;;;;;7.40;58.90;;;;;;5033148;28;19917;-83
2022/01/30 15:12:12;;;;;;;;;;;7.30;59.50;;;;;;5032022;28;19919;-83
2022/01/30 15:14:39;;;;;;;;;;;7.20;59.70;;;;;;5033857;28;19913;-83
2022/01/30 15:17:06;;;;;;;;;;;7.20;59.90;;;;;;5030343;28;19917;-82
2022/01/30 15:19:31;;;;;;;;;;;7.20;61.10;;;;;;5032093;28;19975;-83
2022/01/30 15:21:57;;;;;;;;;;;7.10;60.90;;;;;;5031875;28;19925;-82
2022/01/30 15:24:23;;;;;;;;;;;7.20;61.00;;;;;;5030444;28;20261;-83